MST,Max TemperatureF,Mean TemperatureF,Min TemperatureF,Max Dew PointF,MeanDew PointF,Min DewpointF,Max Humidity, Mean Humidity, Min Humidity, Max Sea Level PressureIn, Mean Sea Level PressureIn, Min Sea Level PressureIn, Max VisibilityMiles, Mean VisibilityMiles, Min VisibilityMiles, Max Wind SpeedMPH, Mean Wind SpeedMPH, Max Gust SpeedMPH,PrecipitationIn, CloudCover, Events, WindDirDegrees
2011-11-1,46,37,28,34,30,27,93,74,50,30.22,30.04,29.95,10,8,0,21,6,28,0.00,6,,23
2011-11-2,33,28,21,27,23,18,93,83,60,30.47,30.40,30.22,10,7,1,21,12,24,0.03,4,,4
2011-11-3,35,24,14,28,19,10,100,86,56,30.38,30.16,29.94,10,6,0,9,3,,0.00,2,,40
2011-11-4,44,32,19,34,27,18,100,81,57,29.92,29.80,29.63,10,7,0,8,3,,0.04,2,,36
2011-11-5,48,38,28,39,27,16,93,67,34,29.62,29.44,29.26,10,10,5,29,7,36,0.00,1,,356
2011-11-6,48,37,26,25,19,12,74,49,32,30.03,29.85,29.63,10,10,10,23,9,31,0.00,0,,95
2011-11-7,42,35,28,30,25,19,81,70,57,30.07,30.04,30.00,10,10,10,13,7,,0.00,3,,16
2011-11-8,33,30,26,28,26,21,93,86,80,30.11,30.07,30.05,10,10,10,8,3,,0.00,3,,350
2011-11-9,,,,,,,,,,,,,,,,,,,,,,
2011-11-10,60,42,23,27,17,7,86,38,15,30.28,30.12,30.00,10,10,10,9,3,,0.00,0,,129
2011-11-11,57,44,30,25,17,10,70,38,20,30.00,29.89,29.71,10,10,10,9,3,,0.00,0,,6
2011-11-12,62,48,35,30,22,14,75,39,22,29.64,29.53,29.44,10,10,10,29,10,41,0.00,1,,249
2011-11-13,57,46,35,30,25,18,75,44,31,29.69,29.53,29.41,10,10,10,30,12,48,0.00,1,,249
2011-11-14,55,46,37,23,15,10,49,30,17,29.73,29.69,29.63,10,10,10,24,15,34,0.00,0,,236
2011-11-15,51,38,26,19,16,12,64,39,22,30.05,29.87,29.70,10,10,10,20,8,32,0.00,1,,299
2011-11-16,41,29,17,18,8,3,80,48,21,30.26,30.18,30.06,10,10,10,24,7,31,0.00,0,,99
2011-11-17,51,33,15,19,14,9,79,49,24,30.19,29.96,29.77,10,10,10,9,3,,0.00,0,,24
2011-11-18,64,47,30,21,17,12,64,29,15,29.70,29.56,29.43,10,10,10,30,12,34,0.00,0,,233
2011-11-19,42,33,24,32,24,18,93,72,56,30.00,29.79,29.50,10,9,0,22,10,26,0.04,5,,124
2011-11-20,42,32,23,27,23,18,86,71,49,30.04,30.01,29.96,10,10,10,10,5,,0.00,4,,8
2011-11-21,48,36,23,30,25,19,93,67,43,30.06,30.02,29.94,10,10,10,7,3,,0.00,1,,343
2011-11-22,55,42,28,30,25,21,86,57,31,30.17,30.10,30.06,10,10,10,12,6,16,0.00,0,,98
2011-11-23,62,46,30,28,24,21,81,51,22,30.22,30.15,30.07,10,10,10,8,4,,0.00,0,,358
2011-11-24,64,46,28,28,21,16,75,45,16,30.01,29.91,29.80,10,10,10,10,5,,0.00,0,,119
2011-11-25,57,44,30,28,21,14,69,37,23,30.18,29.85,29.77,10,10,10,28,9,41,0.00,1,,297
2011-11-26,42,32,23,19,5,0,64,33,16,30.50,30.41,30.19,10,10,10,31,17,40,0.00,0,,307
2011-11-27,55,37,19,19,14,9,74,47,22,30.45,30.30,30.14,10,10,10,8,4,,0.00,0,,75
2011-11-28,59,44,30,27,20,16,86,42,19,30.38,30.18,30.11,10,10,10,17,5,25,0.00,0,,64
2011-11-29,53,40,26,27,23,19,86,56,33,30.36,30.26,30.14,10,10,10,10,5,,0.00,0,,163
2011-11-30,57,42,28,30,24,21,86,55,25,30.09,29.88,29.76,10,10,10,16,4,22,0.00,1,,34